Terminal Aerodrome Forecast
Issued by NWS Wichita, KS

Home | Current Version | Previous Version | Text Only | Print | Product List | Glossary On
Versions: 1 2 3 4 5 6 7 8 9 10 11 12 13 14 15 16 17 18 19 20 21
000
FTUS43 KICT 310500
TAFICT
TAF
KICT 310520Z 3106/0106 16007KT P6SM SCT200
     FM311100 17009KT P6SM SCT100
     FM311600 18024G33KT P6SM SCT150
     FM010100 17019G24KT P6SM BKN150=

USA.gov is the U.S. government's official web portal to all federal, state and local government web resources and services.